Time;durP1;ratioP1;P1;durP2;ratioP2;P2;SDS_P1;SDS_P2;PMS_P1;PMS_P2;Temp;Humidity;BMP_temperature;BMP_pressure;BME280_temperature;BME280_humidity;BME280_pressure;Samples;Min_cycle;Max_cycle;Signal;HPM_P1;HPM_P2
2022/01/15 00:02:03;;;;;;;25.30;10.70;;;;;;;;;;5020683;28;20018;-51
2022/01/15 00:04:28;;;;;;;25.05;10.23;;;;;;;;;;5021922;28;20068;-56
2022/01/15 00:06:54;;;;;;;25.83;10.75;;;;;;;;;;5024271;28;20053;-56
2022/01/15 00:09:19;;;;;;;27.05;11.18;;;;;;;;;;5026964;28;20103;-51
2022/01/15 00:11:45;;;;;;;26.38;11.02;;;;;;;;;;5026375;28;20506;-51
2022/01/15 00:14:22;;;;;;;26.23;10.50;;;;;;;;;;5026636;28;20094;-51
2022/01/15 00:16:55;;;;;;;29.48;11.00;;;;;;;;;;5026932;28;20021;-52
2022/01/15 00:19:31;;;;;;;29.88;10.73;;;;;;;;;;5027688;28;20029;-51
2022/01/15 00:21:56;;;;;;;30.15;11.68;;;;;;;;;;5027972;28;20163;-53
2022/01/15 00:24:24;;;;;;;31.35;11.70;;;;;;;;;;5027585;28;20033;-50
2022/01/15 00:26:49;;;;;;;27.60;11.38;;;;;;;;;;5026246;28;20175;-53
2022/01/15 00:29:15;;;;;;;20.85;10.23;;;;;;;;;;5028114;28;20583;-52
2022/01/15 00:31:41;;;;;;;27.40;11.02;;;;;;;;;;5028882;28;20428;-51
2022/01/15 00:34:06;;;;;;;26.58;10.93;;;;;;;;;;5028247;28;20120;-51
2022/01/15 00:36:31;;;;;;;26.73;11.10;;;;;;;;;;5026856;28;20576;-57
2022/01/15 00:38:57;;;;;;;30.80;11.05;;;;;;;;;;5023897;28;20032;-53
2022/01/15 00:41:22;;;;;;;29.73;11.15;;;;;;;;;;5020923;28;20146;-53
2022/01/15 00:43:48;;;;;;;29.25;11.38;;;;;;;;;;5027692;28;20028;-53
2022/01/15 00:46:13;;;;;;;27.52;10.55;;;;;;;;;;5027639;28;20038;-49
2022/01/15 00:48:39;;;;;;;27.02;10.75;;;;;;;;;;5028858;28;20036;-52
2022/01/15 00:51:04;;;;;;;26.38;10.80;;;;;;;;;;5034134;28;20044;-50
2022/01/15 00:53:29;;;;;;;25.40;10.15;;;;;;;;;;5031193;28;20112;-52
2022/01/15 00:55:55;;;;;;;32.05;11.20;;;;;;;;;;5026292;28;20018;-51
2022/01/15 00:58:20;;;;;;;29.70;10.85;;;;;;;;;;5026225;28;20025;-51
2022/01/15 01:00:46;;;;;;;24.58;10.73;;;;;;;;;;5025942;28;20104;-52
2022/01/15 01:03:12;;;;;;;24.95;11.02;;;;;;;;;;5028044;28;20033;-51
2022/01/15 01:05:37;;;;;;;28.23;10.48;;;;;;;;;;5027149;28;20075;-53
2022/01/15 01:08:03;;;;;;;25.45;11.07;;;;;;;;;;5027306;28;20025;-52
2022/01/15 01:24:29;;;;;;;21.92;10.07;;;;;;;;;;5024406;28;20032;-51
2022/01/15 01:29:36;;;;;;;23.55;9.63;;;;;;;;;;5026181;28;20056;-56
2022/01/15 01:34:30;;;;;;;20.52;9.13;;;;;;;;;;5024917;28;20025;-51
2022/01/15 01:37:10;;;;;;;18.40;8.95;;;;;;;;;;5025160;28;20033;-53
2022/01/15 01:42:14;;;;;;;20.65;8.90;;;;;;;;;;5025604;28;20092;-53
2022/01/15 01:44:42;;;;;;;16.50;8.00;;;;;;;;;;5024718;28;20043;-54
2022/01/15 01:47:24;;;;;;;16.35;7.32;;;;;;;;;;5025977;28;20045;-53
2022/01/15 01:49:49;;;;;;;17.42;7.60;;;;;;;;;;5024351;28;20026;-50
2022/01/15 01:52:14;;;;;;;17.35;7.80;;;;;;;;;;5022331;28;20040;-53
2022/01/15 01:54:40;;;;;;;16.17;7.95;;;;;;;;;;5022906;28;20030;-53
2022/01/15 01:57:05;;;;;;;16.63;6.68;;;;;;;;;;5023348;28;20068;-51
2022/01/15 01:59:31;;;;;;;14.57;6.75;;;;;;;;;;5026052;28;20022;-53
2022/01/15 02:01:57;;;;;;;14.10;6.70;;;;;;;;;;5022619;28;20034;-58
2022/01/15 02:04:22;;;;;;;17.38;7.00;;;;;;;;;;5025010;28;20037;-58
2022/01/15 02:06:48;;;;;;;14.32;6.32;;;;;;;;;;5023147;28;20045;-56
2022/01/15 02:09:15;;;;;;;12.45;6.57;;;;;;;;;;5021402;28;20335;-58
2022/01/15 02:11:42;;;;;;;12.00;6.18;;;;;;;;;;5021981;28;20037;-56
2022/01/15 02:14:08;;;;;;;13.32;6.10;;;;;;;;;;5023215;28;20086;-56
2022/01/15 02:16:33;;;;;;;11.70;6.20;;;;;;;;;;5021919;28;20545;-57
2022/01/15 02:18:59;;;;;;;15.95;6.50;;;;;;;;;;5022682;28;20160;-57
2022/01/15 02:24:08;;;;;;;13.68;6.50;;;;;;;;;;5021517;28;20068;-64
2022/01/15 02:26:37;;;;;;;13.57;6.28;;;;;;;;;;5023961;28;20057;-58
2022/01/15 02:29:03;;;;;;;12.45;6.63;;;;;;;;;;5022435;28;20022;-58
2022/01/15 02:31:30;;;;;;;15.50;6.35;;;;;;;;;;5022432;28;20037;-57
2022/01/15 02:34:00;;;;;;;13.80;6.78;;;;;;;;;;5023878;28;20090;-58
2022/01/15 02:36:29;;;;;;;12.30;6.78;;;;;;;;;;5022845;28;20022;-55
2022/01/15 02:38:55;;;;;;;12.57;6.70;;;;;;;;;;5022129;28;20397;-58
2022/01/15 02:41:35;;;;;;;14.90;7.45;;;;;;;;;;5020304;28;20029;-58
2022/01/15 02:44:04;;;;;;;15.98;7.18;;;;;;;;;;5024086;28;20041;-57
2022/01/15 02:48:58;;;;;;;15.00;7.93;;;;;;;;;;5021607;28;20487;-58
2022/01/15 02:51:28;;;;;;;16.23;7.75;;;;;;;;;;5021958;28;20580;-57
2022/01/15 02:53:56;;;;;;;20.92;8.30;;;;;;;;;;5037622;28;20728;-56
2022/01/15 02:56:29;;;;;;;20.33;7.97;;;;;;;;;;5022605;28;20465;-58
2022/01/15 02:58:55;;;;;;;14.57;7.28;;;;;;;;;;5022626;28;20036;-56
2022/01/15 03:01:21;;;;;;;19.88;8.18;;;;;;;;;;5020925;28;20038;-58
2022/01/15 03:03:47;;;;;;;16.10;8.00;;;;;;;;;;5021737;28;20037;-56
2022/01/15 03:06:15;;;;;;;17.58;8.02;;;;;;;;;;5023377;28;20032;-56
2022/01/15 03:08:42;;;;;;;16.52;7.35;;;;;;;;;;5021924;28;20124;-58
2022/01/15 03:11:08;;;;;;;20.77;7.88;;;;;;;;;;5022407;28;20029;-57
2022/01/15 03:13:35;;;;;;;17.50;7.88;;;;;;;;;;5021075;28;20050;-58
2022/01/15 03:16:01;;;;;;;19.00;8.70;;;;;;;;;;5022286;28;20108;-56
2022/01/15 03:18:26;;;;;;;17.10;7.75;;;;;;;;;;5021512;28;20040;-56
2022/01/15 03:20:52;;;;;;;15.88;7.63;;;;;;;;;;5022492;28;20025;-54
2022/01/15 03:23:17;;;;;;;15.40;7.20;;;;;;;;;;5022419;28;20037;-56
2022/01/15 03:25:43;;;;;;;19.30;7.93;;;;;;;;;;5022366;28;20079;-58
2022/01/15 03:28:08;;;;;;;22.20;8.98;;;;;;;;;;5018872;28;20029;-58
2022/01/15 03:30:34;;;;;;;18.23;8.27;;;;;;;;;;5024119;28;20025;-58
2022/01/15 03:32:59;;;;;;;18.42;8.90;;;;;;;;;;5021668;28;20485;-57
2022/01/15 03:35:25;;;;;;;20.08;8.77;;;;;;;;;;5025181;28;21361;-58
2022/01/15 03:37:50;;;;;;;19.40;8.07;;;;;;;;;;5021707;28;20029;-58
2022/01/15 03:40:16;;;;;;;19.08;8.25;;;;;;;;;;5025813;28;20051;-58
2022/01/15 03:42:43;;;;;;;21.55;8.48;;;;;;;;;;5027422;28;20034;-57
2022/01/15 03:45:09;;;;;;;22.35;8.85;;;;;;;;;;5025515;28;20030;-55
2022/01/15 03:47:34;;;;;;;23.13;8.45;;;;;;;;;;5027425;28;20385;-58
2022/01/15 03:50:00;;;;;;;20.25;8.23;;;;;;;;;;5026163;28;20029;-59
2022/01/15 03:52:25;;;;;;;24.20;9.40;;;;;;;;;;5024325;28;20037;-58
2022/01/15 03:54:54;;;;;;;21.52;9.50;;;;;;;;;;5026624;28;20017;-54
2022/01/15 03:57:20;;;;;;;21.63;9.13;;;;;;;;;;5009934;28;20113;-52
2022/01/15 03:59:45;;;;;;;24.60;8.52;;;;;;;;;;5026147;28;20121;-55
2022/01/15 04:02:10;;;;;;;24.35;9.60;;;;;;;;;;5026235;28;20125;-55
2022/01/15 04:04:36;;;;;;;21.17;9.00;;;;;;;;;;5026710;28;20037;-56
2022/01/15 04:07:01;;;;;;;23.98;9.10;;;;;;;;;;5026565;28;20362;-53
2022/01/15 04:09:26;;;;;;;22.75;8.82;;;;;;;;;;5026578;28;20100;-55
2022/01/15 04:11:52;;;;;;;26.48;9.35;;;;;;;;;;5027853;28;20038;-53
2022/01/15 04:14:17;;;;;;;18.08;7.95;;;;;;;;;;5026402;28;20591;-53
2022/01/15 04:16:43;;;;;;;22.02;9.40;;;;;;;;;;5026436;28;20165;-55
2022/01/15 04:19:08;;;;;;;23.65;9.27;;;;;;;;;;5025988;28;20500;-54
2022/01/15 04:21:35;;;;;;;23.73;9.15;;;;;;;;;;5026656;28;20763;-54
2022/01/15 04:24:01;;;;;;;22.08;9.00;;;;;;;;;;5025469;28;20519;-53
2022/01/15 04:26:27;;;;;;;20.33;8.40;;;;;;;;;;5026086;28;20152;-57
2022/01/15 04:28:54;;;;;;;21.73;8.90;;;;;;;;;;5025312;28;20109;-57
2022/01/15 04:31:19;;;;;;;23.48;8.43;;;;;;;;;;5027754;28;20104;-56
2022/01/15 04:33:45;;;;;;;23.98;9.38;;;;;;;;;;5025468;28;20041;-56
2022/01/15 04:36:11;;;;;;;26.15;8.95;;;;;;;;;;5026851;28;20075;-57
2022/01/15 04:38:38;;;;;;;23.73;9.60;;;;;;;;;;5025544;28;20034;-55
2022/01/15 04:41:07;;;;;;;18.40;8.32;;;;;;;;;;5025718;28;20595;-52
2022/01/15 04:43:33;;;;;;;22.02;8.48;;;;;;;;;;5023519;28;20029;-54
2022/01/15 04:45:59;;;;;;;22.63;8.68;;;;;;;;;;5026045;28;20033;-55
2022/01/15 04:48:25;;;;;;;22.95;8.43;;;;;;;;;;5007593;28;20493;-54
2022/01/15 04:50:50;;;;;;;23.13;8.10;;;;;;;;;;5024769;28;20034;-54
2022/01/15 04:53:16;;;;;;;27.70;9.55;;;;;;;;;;5024254;28;20033;-53
2022/01/15 04:55:41;;;;;;;23.38;8.60;;;;;;;;;;5025519;28;20218;-55
2022/01/15 04:58:08;;;;;;;24.13;8.70;;;;;;;;;;5022647;28;20091;-53
2022/01/15 05:00:34;;;;;;;26.83;9.10;;;;;;;;;;5025356;28;20033;-55
2022/01/15 05:03:00;;;;;;;24.70;8.85;;;;;;;;;;5020230;28;20026;-55
2022/01/15 05:05:27;;;;;;;21.98;9.00;;;;;;;;;;5024155;28;20037;-54
2022/01/15 05:07:54;;;;;;;24.80;8.73;;;;;;;;;;5022363;28;20124;-58
2022/01/15 05:10:23;;;;;;;25.50;8.43;;;;;;;;;;5025114;28;20037;-57
2022/01/15 05:12:50;;;;;;;17.77;7.88;;;;;;;;;;5021558;28;20129;-57
2022/01/15 05:15:17;;;;;;;20.08;8.23;;;;;;;;;;5024919;28;20036;-58
2022/01/15 05:17:43;;;;;;;18.60;7.90;;;;;;;;;;5023220;28;20036;-56
2022/01/15 05:20:10;;;;;;;20.83;7.38;;;;;;;;;;5024536;28;20033;-57
2022/01/15 05:22:36;;;;;;;15.75;7.50;;;;;;;;;;5024259;28;20041;-57
2022/01/15 05:25:03;;;;;;;15.52;7.05;;;;;;;;;;5025686;28;20025;-54
2022/01/15 05:27:28;;;;;;;20.52;8.10;;;;;;;;;;5024094;28;20040;-55
2022/01/15 05:29:54;;;;;;;20.27;7.57;;;;;;;;;;5022631;28;20037;-54
2022/01/15 05:32:23;;;;;;;13.18;6.70;;;;;;;;;;5023967;28;20053;-56
2022/01/15 05:34:49;;;;;;;16.00;7.55;;;;;;;;;;5024750;28;20520;-56
2022/01/15 05:37:14;;;;;;;18.20;6.75;;;;;;;;;;5023429;28;20461;-57
2022/01/15 05:39:39;;;;;;;14.48;6.75;;;;;;;;;;5024506;28;20044;-54
2022/01/15 05:42:05;;;;;;;16.65;6.82;;;;;;;;;;5022754;28;20037;-55
2022/01/15 05:44:31;;;;;;;16.02;7.25;;;;;;;;;;5024508;28;20048;-54
2022/01/15 05:46:56;;;;;;;13.95;7.20;;;;;;;;;;5024553;28;20127;-57
2022/01/15 05:49:21;;;;;;;13.30;6.35;;;;;;;;;;5022912;28;20378;-55
2022/01/15 05:51:47;;;;;;;11.73;6.43;;;;;;;;;;5023960;28;20037;-52
2022/01/15 05:54:13;;;;;;;12.48;6.30;;;;;;;;;;5024957;28;20389;-54
2022/01/15 05:56:39;;;;;;;13.60;7.00;;;;;;;;;;5024071;28;20033;-52
2022/01/15 05:59:06;;;;;;;13.70;6.03;;;;;;;;;;5024779;28;20048;-53
2022/01/15 06:01:32;;;;;;;14.02;6.47;;;;;;;;;;5023943;28;20052;-53
2022/01/15 06:03:57;;;;;;;12.00;6.15;;;;;;;;;;5019772;28;20025;-57
2022/01/15 06:06:23;;;;;;;15.20;7.38;;;;;;;;;;5021611;28;20025;-56
2022/01/15 06:08:48;;;;;;;14.95;6.75;;;;;;;;;;5021576;28;20123;-52
2022/01/15 06:11:17;;;;;;;15.80;6.88;;;;;;;;;;5020671;28;20037;-56
2022/01/15 06:13:46;;;;;;;13.88;6.30;;;;;;;;;;5021284;28;20064;-54
2022/01/15 06:16:12;;;;;;;13.40;6.78;;;;;;;;;;5006254;28;20025;-56
2022/01/15 06:18:37;;;;;;;13.25;6.47;;;;;;;;;;5022466;28;20107;-54
2022/01/15 06:21:03;;;;;;;12.25;6.07;;;;;;;;;;5023907;28;20113;-56
2022/01/15 06:23:28;;;;;;;12.75;6.30;;;;;;;;;;5022597;28;20025;-51
2022/01/15 06:25:54;;;;;;;12.43;6.78;;;;;;;;;;5023621;28;20108;-53
2022/01/15 06:28:19;;;;;;;12.30;6.38;;;;;;;;;;5020392;28;20036;-51
2022/01/15 06:30:45;;;;;;;13.63;6.32;;;;;;;;;;5023118;28;20597;-55
2022/01/15 06:33:10;;;;;;;11.63;6.22;;;;;;;;;;5021172;28;21007;-52
2022/01/15 06:35:35;;;;;;;10.48;5.53;;;;;;;;;;5022358;28;20044;-51
2022/01/15 06:38:01;;;;;;;10.82;5.40;;;;;;;;;;5021170;28;20047;-52
2022/01/15 06:40:26;;;;;;;8.95;5.25;;;;;;;;;;5021585;28;20025;-53
2022/01/15 06:42:52;;;;;;;13.23;6.72;;;;;;;;;;5021097;28;20038;-51
2022/01/15 06:45:17;;;;;;;12.57;6.18;;;;;;;;;;5020209;28;20032;-57
2022/01/15 06:47:43;;;;;;;9.93;6.22;;;;;;;;;;5022429;28;20401;-52
2022/01/15 06:50:09;;;;;;;9.50;5.43;;;;;;;;;;5023125;28;20065;-55
2022/01/15 06:52:35;;;;;;;10.57;6.25;;;;;;;;;;5023775;28;20477;-56
2022/01/15 06:55:05;;;;;;;9.68;5.57;;;;;;;;;;5021087;28;20033;-51
2022/01/15 06:57:30;;;;;;;12.02;6.00;;;;;;;;;;5022846;28;20036;-54
2022/01/15 06:59:56;;;;;;;15.80;5.93;;;;;;;;;;5023263;28;20037;-52
2022/01/15 07:02:21;;;;;;;11.93;5.95;;;;;;;;;;5021569;28;20473;-54
2022/01/15 07:04:47;;;;;;;12.15;6.13;;;;;;;;;;5020086;28;20037;-55
2022/01/15 07:07:12;;;;;;;11.95;6.35;;;;;;;;;;5017832;28;20028;-53
2022/01/15 07:09:38;;;;;;;11.60;5.68;;;;;;;;;;5022931;28;20937;-53
2022/01/15 07:12:04;;;;;;;12.10;6.45;;;;;;;;;;5016878;28;20083;-52
2022/01/15 07:14:29;;;;;;;11.13;6.07;;;;;;;;;;5021629;28;20029;-52
2022/01/15 07:16:54;;;;;;;12.70;6.22;;;;;;;;;;5026008;28;20026;-55
2022/01/15 07:19:20;;;;;;;11.55;6.50;;;;;;;;;;5025289;28;20108;-54
2022/01/15 07:21:47;;;;;;;11.60;6.70;;;;;;;;;;5024843;28;20026;-54
2022/01/15 07:24:13;;;;;;;12.32;6.20;;;;;;;;;;5025752;28;20033;-55
2022/01/15 07:26:39;;;;;;;12.60;6.93;;;;;;;;;;5025330;28;20068;-52
2022/01/15 07:29:07;;;;;;;12.02;6.57;;;;;;;;;;5025943;28;20493;-53
2022/01/15 07:31:32;;;;;;;13.77;6.40;;;;;;;;;;5026291;28;20014;-53
2022/01/15 07:33:57;;;;;;;14.02;6.70;;;;;;;;;;5026908;28;20398;-55
2022/01/15 07:36:23;;;;;;;14.32;6.57;;;;;;;;;;5024281;28;20151;-51
2022/01/15 07:38:48;;;;;;;14.18;7.32;;;;;;;;;;5023740;28;20037;-52
2022/01/15 07:41:14;;;;;;;13.60;7.28;;;;;;;;;;5021512;28;20029;-54
2022/01/15 07:43:42;;;;;;;14.20;7.15;;;;;;;;;;5024341;28;20092;-55
2022/01/15 07:46:07;;;;;;;12.25;6.47;;;;;;;;;;5023670;28;20083;-54
2022/01/15 07:48:33;;;;;;;16.38;7.20;;;;;;;;;;5025902;28;20441;-53
2022/01/15 07:50:58;;;;;;;15.32;7.45;;;;;;;;;;5026894;28;20552;-55
2022/01/15 07:53:23;;;;;;;11.52;7.22;;;;;;;;;;5025743;28;20034;-52
2022/01/15 07:55:49;;;;;;;15.07;7.63;;;;;;;;;;5025350;28;20033;-52
2022/01/15 07:58:14;;;;;;;14.90;6.85;;;;;;;;;;5025420;28;20030;-51
2022/01/15 08:00:41;;;;;;;12.57;7.28;;;;;;;;;;5025700;28;20442;-54
2022/01/15 08:03:07;;;;;;;12.48;6.63;;;;;;;;;;5024900;28;20041;-56
2022/01/15 08:05:33;;;;;;;10.85;6.60;;;;;;;;;;5026406;28;20559;-54
2022/01/15 08:07:58;;;;;;;11.70;7.20;;;;;;;;;;5023778;28;20408;-55
2022/01/15 08:10:23;;;;;;;10.55;6.97;;;;;;;;;;5025037;28;20029;-54
2022/01/15 08:12:49;;;;;;;11.10;6.22;;;;;;;;;;5011937;28;20546;-55
2022/01/15 08:15:16;;;;;;;10.98;6.25;;;;;;;;;;5024411;28;20033;-55
2022/01/15 08:17:42;;;;;;;11.32;6.38;;;;;;;;;;5026222;28;20032;-58
2022/01/15 08:20:08;;;;;;;11.93;5.82;;;;;;;;;;5025527;28;20604;-57
2022/01/15 08:22:34;;;;;;;9.95;6.07;;;;;;;;;;5023818;28;20033;-56
2022/01/15 08:24:59;;;;;;;10.73;6.20;;;;;;;;;;5026777;28;20045;-53
2022/01/15 08:27:25;;;;;;;11.07;6.53;;;;;;;;;;5022945;28;20432;-53
2022/01/15 08:29:50;;;;;;;11.32;6.07;;;;;;;;;;5025182;28;20041;-56
2022/01/15 08:32:16;;;;;;;13.32;6.75;;;;;;;;;;5023789;28;20022;-55
2022/01/15 08:34:43;;;;;;;10.68;6.07;;;;;;;;;;5023206;28;20535;-53
2022/01/15 08:37:09;;;;;;;12.93;6.18;;;;;;;;;;5022937;28;20037;-54
2022/01/15 08:39:35;;;;;;;12.38;7.22;;;;;;;;;;5024369;28;20559;-54
2022/01/15 08:42:01;;;;;;;13.27;7.03;;;;;;;;;;5021575;28;20033;-56
2022/01/15 08:44:27;;;;;;;11.75;6.45;;;;;;;;;;5022154;28;20025;-52
2022/01/15 08:46:52;;;;;;;12.70;6.85;;;;;;;;;;5020940;28;20496;-56
2022/01/15 08:49:19;;;;;;;10.57;6.80;;;;;;;;;;5024122;28;20104;-52
2022/01/15 08:51:44;;;;;;;10.57;6.82;;;;;;;;;;5025700;28;20500;-56
2022/01/15 08:54:10;;;;;;;13.30;6.97;;;;;;;;;;5008455;28;20144;-56
2022/01/15 08:56:36;;;;;;;12.23;7.25;;;;;;;;;;5025884;28;20068;-53
2022/01/15 08:59:03;;;;;;;13.77;6.88;;;;;;;;;;5024750;28;20461;-53
2022/01/15 09:01:28;;;;;;;14.15;7.20;;;;;;;;;;5023203;28;20036;-51
2022/01/15 09:03:55;;;;;;;10.77;6.80;;;;;;;;;;5026277;28;20351;-51
2022/01/15 09:06:21;;;;;;;12.63;7.05;;;;;;;;;;5023430;28;20144;-52
2022/01/15 09:08:47;;;;;;;11.85;6.55;;;;;;;;;;4995908;28;20912;-52
2022/01/15 09:11:12;;;;;;;12.20;6.80;;;;;;;;;;5024599;28;20025;-56
2022/01/15 09:13:38;;;;;;;16.75;7.80;;;;;;;;;;5022400;28;20131;-55
2022/01/15 09:16:04;;;;;;;14.18;7.82;;;;;;;;;;5021759;28;20025;-57
2022/01/15 09:18:29;;;;;;;12.27;6.88;;;;;;;;;;5024097;28;20088;-52
2022/01/15 09:20:55;;;;;;;13.60;7.82;;;;;;;;;;5026237;28;20037;-56
2022/01/15 09:23:20;;;;;;;15.90;7.40;;;;;;;;;;5025136;28;20030;-55
2022/01/15 09:25:46;;;;;;;13.18;6.88;;;;;;;;;;5023638;28;20029;-52
2022/01/15 09:30:55;;;;;;;13.02;7.43;;;;;;;;;;5024020;28;20098;-55
2022/01/15 09:33:21;;;;;;;14.48;8.82;;;;;;;;;;5025545;28;20059;-54
2022/01/15 09:35:46;;;;;;;13.75;8.18;;;;;;;;;;5024171;28;20037;-51
2022/01/15 09:38:15;;;;;;;14.40;8.25;;;;;;;;;;5022161;28;20136;-56
2022/01/15 09:40:41;;;;;;;15.10;8.00;;;;;;;;;;5022927;28;20152;-57
2022/01/15 09:43:06;;;;;;;18.23;8.98;;;;;;;;;;5021839;28;20388;-52
2022/01/15 09:45:35;;;;;;;17.13;9.02;;;;;;;;;;5021963;28;20029;-55
2022/01/15 09:48:03;;;;;;;16.10;8.15;;;;;;;;;;5021369;28;20037;-56
2022/01/15 09:50:32;;;;;;;13.93;8.13;;;;;;;;;;5021303;28;20033;-56
2022/01/15 09:52:57;;;;;;;14.07;8.15;;;;;;;;;;5024852;28;20029;-54
2022/01/15 09:55:24;;;;;;;16.33;8.93;;;;;;;;;;5024675;28;20760;-54
2022/01/15 09:57:50;;;;;;;15.10;8.65;;;;;;;;;;5024993;28;20363;-51
2022/01/15 10:00:18;;;;;;;13.02;7.65;;;;;;;;;;5025556;28;20136;-55
2022/01/15 10:02:45;;;;;;;12.93;7.65;;;;;;;;;;5024421;28;20145;-57
2022/01/15 10:05:12;;;;;;;15.18;7.72;;;;;;;;;;5025446;28;20083;-54
2022/01/15 10:07:38;;;;;;;13.30;7.78;;;;;;;;;;5025007;28;20026;-53
2022/01/15 10:10:18;;;;;;;13.65;8.38;;;;;;;;;;5025229;28;20041;-54
2022/01/15 10:12:44;;;;;;;16.38;8.57;;;;;;;;;;5024339;28;20021;-52
2022/01/15 10:15:11;;;;;;;17.67;8.27;;;;;;;;;;5024852;28;20478;-55
2022/01/15 10:17:38;;;;;;;15.88;8.45;;;;;;;;;;5007681;28;20421;-51
2022/01/15 10:20:09;;;;;;;11.35;7.30;;;;;;;;;;5024710;28;20029;-51
2022/01/15 10:22:39;;;;;;;17.50;7.13;;;;;;;;;;5024200;28;20460;-55
2022/01/15 10:25:11;;;;;;;11.90;6.70;;;;;;;;;;5023528;28;20033;-54
2022/01/15 10:27:49;;;;;;;12.25;6.03;;;;;;;;;;5023652;28;20088;-54
2022/01/15 10:30:22;;;;;;;11.90;6.75;;;;;;;;;;5023458;28;20310;-55
2022/01/15 10:32:57;;;;;;;10.70;5.32;;;;;;;;;;5025022;28;20029;-53
2022/01/15 10:35:24;;;;;;;9.50;5.22;;;;;;;;;;5024212;28;20029;-53
2022/01/15 10:37:58;;;;;;;9.38;5.43;;;;;;;;;;5023836;28;20033;-56
2022/01/15 10:40:48;;;;;;;10.65;6.13;;;;;;;;;;5007824;28;20029;-54
2022/01/15 10:43:16;;;;;;;10.00;5.88;;;;;;;;;;5024725;28;20040;-56
2022/01/15 10:45:56;;;;;;;14.43;6.63;;;;;;;;;;5024295;28;20474;-52
2022/01/15 10:48:25;;;;;;;11.25;6.63;;;;;;;;;;5025653;28;20497;-50
2022/01/15 10:50:58;;;;;;;11.65;6.47;;;;;;;;;;5020258;28;20034;-57
2022/01/15 10:53:37;;;;;;;;;;;;;;;;;;5022426;28;20021;-53
2022/01/15 10:56:05;;;;;;;11.98;6.68;;;;;;;;;;5023640;28;19920;-53
2022/01/15 10:58:30;;;;;;;12.30;6.13;;;;;;;;;;5020937;28;20036;-55
2022/01/15 11:00:56;;;;;;;10.65;5.53;;;;;;;;;;5021910;28;20113;-55
2022/01/15 11:03:24;;;;;;;12.27;6.40;;;;;;;;;;5021078;28;20132;-51
2022/01/15 11:05:50;;;;;;;8.82;6.30;;;;;;;;;;5021275;28;20121;-57
2022/01/15 11:08:17;;;;;;;11.32;6.72;;;;;;;;;;5024125;28;20042;-57
2022/01/15 11:10:54;;;;;;;12.00;6.88;;;;;;;;;;5022824;28;20080;-54
2022/01/15 11:13:31;;;;;;;10.93;6.75;;;;;;;;;;5038485;28;20391;-56
2022/01/15 11:16:04;;;;;;;11.65;7.60;;;;;;;;;;5023540;28;20033;-58
2022/01/15 11:18:35;;;;;;;14.02;7.85;;;;;;;;;;5019123;28;20026;-57
2022/01/15 11:21:07;;;;;;;14.10;8.45;;;;;;;;;;5021149;28;20033;-52
2022/01/15 11:23:35;;;;;;;14.10;8.55;;;;;;;;;;5020385;28;20033;-52
2022/01/15 11:26:04;;;;;;;11.07;7.53;;;;;;;;;;5022657;28;20484;-51
2022/01/15 11:28:33;;;;;;;13.30;8.57;;;;;;;;;;5021389;28;20040;-57
2022/01/15 11:31:11;;;;;;;12.10;8.60;;;;;;;;;;5023187;28;20108;-56
2022/01/15 11:33:47;;;;;;;15.88;8.98;;;;;;;;;;5023154;28;20040;-52
2022/01/15 11:36:36;;;;;;;16.10;9.05;;;;;;;;;;5020944;28;20183;-52
2022/01/15 11:39:21;;;;;;;12.90;8.07;;;;;;;;;;5022836;28;20060;-56
2022/01/15 11:41:52;;;;;;;18.88;9.18;;;;;;;;;;5023631;28;20037;-55
2022/01/15 11:44:29;;;;;;;17.00;9.48;;;;;;;;;;5020107;28;20029;-55
2022/01/15 11:46:57;;;;;;;18.40;9.48;;;;;;;;;;5019710;28;20385;-56
2022/01/15 11:49:31;;;;;;;17.42;9.40;;;;;;;;;;5021131;28;20438;-50
2022/01/15 11:52:06;;;;;;;18.10;10.68;;;;;;;;;;5018519;28;20034;-54
2022/01/15 11:54:32;;;;;;;20.23;10.93;;;;;;;;;;5038237;28;20026;-52
2022/01/15 11:57:00;;;;;;;18.98;10.55;;;;;;;;;;5019636;28;20125;-53
2022/01/15 11:59:26;;;;;;;22.55;11.23;;;;;;;;;;5021526;28;20091;-57
2022/01/15 12:01:53;;;;;;;20.98;11.32;;;;;;;;;;5026296;28;20025;-54
2022/01/15 12:04:27;;;;;;;19.42;10.80;;;;;;;;;;5025217;28;20053;-56
2022/01/15 12:07:05;;;;;;;18.75;10.93;;;;;;;;;;5025676;28;20036;-52
2022/01/15 12:09:39;;;;;;;22.25;11.85;;;;;;;;;;5025849;28;20124;-54
2022/01/15 12:14:57;;;;;;;19.60;11.65;;;;;;;;;;5023441;28;20426;-56
2022/01/15 12:17:42;;;;;;;17.95;10.63;;;;;;;;;;5024261;28;20032;-54
2022/01/15 12:20:16;;;;;;;16.90;10.35;;;;;;;;;;5025328;28;20041;-54
2022/01/15 12:22:50;;;;;;;15.50;10.05;;;;;;;;;;5024525;28;20394;-57
2022/01/15 12:25:15;;;;;;;;;;;;;;;;;;5023481;28;20094;-52
2022/01/15 12:27:42;;;;;;;18.73;10.10;;;;;;;;;;5022806;28;19925;-54
2022/01/15 12:30:15;;;;;;;16.15;10.10;;;;;;;;;;5024770;28;20260;-54
2022/01/15 12:32:42;;;;;;;;;;;;;;;;;;5023652;28;20025;-55
2022/01/15 12:35:18;;;;;;;18.17;10.40;;;;;;;;;;5024820;28;19917;-57
2022/01/15 12:38:07;;;;;;;17.63;10.45;;;;;;;;;;5023248;28;20080;-56
2022/01/15 12:40:34;;;;;;;16.20;9.90;;;;;;;;;;5026936;28;20439;-56
2022/01/15 12:43:04;;;;;;;17.20;10.95;;;;;;;;;;5023651;28;20029;-57
2022/01/15 12:45:31;;;;;;;18.52;10.85;;;;;;;;;;5024407;28;20037;-56
2022/01/15 12:47:57;;;;;;;17.70;10.80;;;;;;;;;;5024087;28;20076;-56
2022/01/15 12:50:22;;;;;;;19.08;11.32;;;;;;;;;;5024226;28;20107;-55
2022/01/15 12:53:01;;;;;;;18.00;10.55;;;;;;;;;;5023860;28;20049;-53
2022/01/15 12:55:34;;;;;;;18.65;11.27;;;;;;;;;;5008129;28;20132;-54
2022/01/15 12:58:00;;;;;;;;;;;;;;;;;;5024711;28;20034;-51
2022/01/15 13:00:29;;;;;;;18.02;10.68;;;;;;;;;;5024364;28;19921;-51
2022/01/15 13:02:57;;;;;;;16.02;10.15;;;;;;;;;;5024344;28;20033;-55
2022/01/15 13:05:26;;;;;;;18.23;10.98;;;;;;;;;;5025843;28;20389;-52
2022/01/15 13:07:56;;;;;;;18.42;10.48;;;;;;;;;;5023958;28;20221;-52
2022/01/15 13:10:25;;;;;;;18.95;10.63;;;;;;;;;;5024846;28;20709;-51
2022/01/15 13:12:51;;;;;;;18.58;11.23;;;;;;;;;;5022669;28;20052;-51
2022/01/15 13:15:23;;;;;;;18.35;11.07;;;;;;;;;;5025112;28;20029;-55
2022/01/15 13:17:49;;;;;;;21.88;11.82;;;;;;;;;;5024446;28;20032;-54
2022/01/15 13:20:29;;;;;;;18.60;11.63;;;;;;;;;;5025948;28;20033;-51
2022/01/15 13:22:55;;;;;;;19.02;11.65;;;;;;;;;;5024980;28;20052;-51
2022/01/15 13:25:24;;;;;;;18.13;11.43;;;;;;;;;;5026185;28;20033;-54
2022/01/15 13:27:51;;;;;;;18.77;11.80;;;;;;;;;;5023552;28;20041;-55
2022/01/15 13:30:19;;;;;;;24.00;11.43;;;;;;;;;;5022412;28;20035;-54
2022/01/15 13:32:52;;;;;;;15.18;10.57;;;;;;;;;;5010259;28;20049;-56
2022/01/15 13:35:19;;;;;;;20.92;12.18;;;;;;;;;;5025544;28;20034;-52
2022/01/15 13:37:56;;;;;;;17.98;10.68;;;;;;;;;;5023186;28;20429;-55
2022/01/15 13:40:33;;;;;;;17.90;11.05;;;;;;;;;;5024999;28;20043;-53
2022/01/15 13:42:58;;;;;;;17.60;10.52;;;;;;;;;;5024329;28;20038;-52
2022/01/15 13:45:28;;;;;;;17.05;10.80;;;;;;;;;;5024937;28;20037;-53
2022/01/15 13:47:53;;;;;;;15.05;10.38;;;;;;;;;;5023391;28;20034;-51
2022/01/15 13:53:13;;;;;;;;;;;;;;;;;;5025133;28;20040;-53
2022/01/15 13:55:38;;;;;;;17.37;10.33;;;;;;;;;;5023127;28;20276;-52
2022/01/15 13:58:09;;;;;;;14.38;9.32;;;;;;;;;;5022729;28;20580;-53
2022/01/15 14:00:35;;;;;;;18.33;11.60;;;;;;;;;;5022017;28;20036;-51
2022/01/15 14:03:06;;;;;;;18.23;11.50;;;;;;;;;;5023568;28;20039;-56
2022/01/15 14:05:33;;;;;;;18.48;11.40;;;;;;;;;;5023289;28;20037;-54
2022/01/15 14:08:09;;;;;;;19.55;10.88;;;;;;;;;;5024286;28;20432;-52
2022/01/15 14:10:38;;;;;;;20.50;11.27;;;;;;;;;;5023733;28;20033;-51
2022/01/15 14:13:07;;;;;;;18.50;11.45;;;;;;;;;;5023682;28;20106;-52
2022/01/15 14:15:44;;;;;;;17.15;10.25;;;;;;;;;;5023595;28;20053;-55
2022/01/15 14:18:12;;;;;;;16.60;10.90;;;;;;;;;;5022925;28;20044;-53
2022/01/15 14:23:31;;;;;;;15.80;9.25;;;;;;;;;;5023651;28;20087;-57
2022/01/15 14:25:57;;;;;;;16.80;10.43;;;;;;;;;;5023760;28;20105;-54
2022/01/15 14:28:25;;;;;;;14.57;9.68;;;;;;;;;;5023560;28;20054;-55
2022/01/15 14:30:54;;;;;;;15.38;10.63;;;;;;;;;;5023997;28;20537;-56
2022/01/15 14:33:20;;;;;;;14.55;9.60;;;;;;;;;;5020384;28;20040;-55
2022/01/15 14:35:46;;;;;;;15.93;10.05;;;;;;;;;;5023225;28;20120;-54
2022/01/15 14:38:14;;;;;;;16.65;10.52;;;;;;;;;;5022984;28;20104;-51
2022/01/15 14:40:40;;;;;;;16.23;10.40;;;;;;;;;;5024797;28;20048;-56
2022/01/15 14:43:05;;;;;;;16.20;10.25;;;;;;;;;;5022320;28;20662;-52
2022/01/15 14:45:31;;;;;;;17.80;10.15;;;;;;;;;;5023790;28;20029;-52
2022/01/15 14:47:56;;;;;;;19.80;10.82;;;;;;;;;;5022116;28;20014;-52
2022/01/15 14:50:23;;;;;;;15.30;10.73;;;;;;;;;;5023053;28;20041;-52
2022/01/15 14:52:48;;;;;;;17.17;11.00;;;;;;;;;;5023549;28;20066;-54
2022/01/15 14:55:15;;;;;;;18.17;11.32;;;;;;;;;;5024386;28;20029;-55
2022/01/15 14:57:40;;;;;;;19.20;11.52;;;;;;;;;;5022862;28;20030;-55
2022/01/15 15:00:08;;;;;;;17.58;11.13;;;;;;;;;;5022994;28;20029;-56
2022/01/15 15:02:36;;;;;;;17.70;11.05;;;;;;;;;;5022910;28;20033;-51
2022/01/15 15:05:01;;;;;;;18.52;10.75;;;;;;;;;;5021457;28;20414;-57
2022/01/15 15:07:27;;;;;;;17.50;11.10;;;;;;;;;;5021493;28;20182;-57
2022/01/15 15:09:52;;;;;;;17.70;10.75;;;;;;;;;;5022681;28;20033;-51